Overview Statistics Trail Chart Weather Telemetry Raw packets
 

This is the latest recevied weather packets stored in our database for station/object KF5VOI. If no packets are shown the sender has not sent any weather packets the latest 10 day(s).

<< 1 2 3 4 5 >>
Time Temp. Humidity Pressure Rain* Wind** Luminosity Snow
1788517595 26.67° C 99% 1015.2 hPa 0 mm - - -
1788513995 26.11° C 99% 1015.1 hPa 0 mm - - -
1788510394 26.11° C 99% 1015.3 hPa 0 mm - - -
1788506794 26.11° C 99% 1015.2 hPa 0 mm - - -
1788503194 26.11° C 99% 1015.5 hPa 0 mm - - -
1788501395 26.11° C 99% 1015.5 hPa 0 mm - - -
1788499594 26.11° C 99% 1015.2 hPa 0 mm - - -
1788495994 26.67° C 99% 1015.1 hPa 0 mm - - -
1788494194 27.22° C 99% 1015.2 hPa 0 mm - - -
1788492394 27.22° C 98% 1015.6 hPa 0 mm - - -
1788490594 27.78° C 97% 1015.8 hPa 0 mm - - -
1788488794 27.78° C 96% 1015.9 hPa 0 mm - - -
1788486994 28.33° C 94% 1015.6 hPa 0 mm - - -
1788485194 28.89° C 92% 1015.4 hPa 0 mm - - -
1788483394 28.89° C 91% 1015.6 hPa 0 mm - - -
1788481594 29.44° C 89% 1015.5 hPa 0 mm - - -
1788479794 30.56° C 86% 1015.4 hPa 0 mm - - -
1788477994 32.22° C 82% 1015 hPa 0 mm - - -
1788476195 32.78° C 79% 1014.9 hPa 0 mm - - -
1788474394 33.33° C 74% 1015 hPa 0 mm - - -
1788472594 33.89° C 74% 1015.1 hPa 0 mm - - -
1788470794 33.89° C 75% 1015.3 hPa 0 mm - - -
1788468994 32.22° C 80% 1015.4 hPa 0 mm - - -
1788467194 35° C 71% 1015.6 hPa 0 mm - - -
1788465394 35° C 73% 1015.8 hPa 0 mm - - -

* Rain latest hour (hover to see other rain measurements)
** Current wind speed in m/s (hover to see current wind gust speed)